Time;durP1;ratioP1;P1;durP2;ratioP2;P2;SDS_P1;SDS_P2;PMS_P1;PMS_P2;Temp;Humidity;BMP_temperature;BMP_pressure;BME280_temperature;BME280_humidity;BME280_pressure;Samples;Min_cycle;Max_cycle;Signal;HPM_P1;HPM_P2
2023/03/25 00:01:32;;;;;;;1.55;0.90;;;8.20;99.90;;;;;;8328413;28;20531;-76
2023/03/25 00:05:33;;;;;;;0.90;0.60;;;8.10;99.90;;;;;;8328220;28;20421;-75
2023/03/25 00:09:34;;;;;;;0.88;0.65;;;8.10;99.90;;;;;;8328215;28;20037;-76
2023/03/25 00:13:34;;;;;;;1.63;0.93;;;8.10;99.90;;;;;;8327923;28;20059;-76
2023/03/25 00:17:37;;;;;;;1.70;0.90;;;8.00;99.90;;;;;;8327790;28;20022;-76
2023/03/25 00:21:38;;;;;;;2.83;0.70;;;8.10;99.90;;;;;;8331723;28;20504;-75
2023/03/25 00:25:39;;;;;;;0.73;0.60;;;8.00;99.90;;;;;;8327500;28;20029;-74
2023/03/25 00:29:43;;;;;;;1.48;0.70;;;8.10;99.90;;;;;;8327642;28;20120;-75
2023/03/25 00:33:44;;;;;;;0.75;0.50;;;8.00;99.90;;;;;;8327345;28;20116;-75
2023/03/25 00:37:46;;;;;;;1.25;0.65;;;7.90;99.90;;;;;;8327900;28;20393;-75
2023/03/25 00:41:47;;;;;;;1.88;0.50;;;7.90;99.90;;;;;;8327995;28;20064;-76
2023/03/25 00:45:47;;;;;;;1.00;0.63;;;7.80;99.90;;;;;;8328812;28;20060;-76
2023/03/25 00:49:49;;;;;;;1.80;1.00;;;7.70;99.90;;;;;;8327171;28;20026;-75
2023/03/25 00:53:52;;;;;;;0.95;0.70;;;7.80;99.90;;;;;;8327506;28;20516;-76
2023/03/25 00:57:53;;;;;;;1.52;0.98;;;7.80;99.90;;;;;;8327318;28;20045;-75
2023/03/25 01:01:55;;;;;;;0.82;0.60;;;7.90;99.90;;;;;;8326445;28;20052;-76
2023/03/25 01:05:56;;;;;;;2.60;0.80;;;7.90;99.90;;;;;;8327619;28;20024;-76
2023/03/25 01:09:58;;;;;;;1.20;0.80;;;7.90;99.90;;;;;;8326026;28;20022;-76
2023/03/25 01:13:59;;;;;;;2.17;0.60;;;7.80;99.90;;;;;;8325903;28;20026;-76
2023/03/25 01:18:00;;;;;;;1.85;0.73;;;7.70;99.90;;;;;;8326998;28;20025;-75
2023/03/25 01:22:00;;;;;;;1.65;0.70;;;7.80;99.90;;;;;;8326179;28;20025;-76
2023/03/25 01:26:01;;;;;;;1.27;0.82;;;7.70;99.90;;;;;;8326924;28;20049;-76
2023/03/25 01:30:02;;;;;;;2.00;0.80;;;7.50;99.90;;;;;;8325421;28;20030;-75
2023/03/25 01:34:03;;;;;;;1.33;0.75;;;7.40;99.90;;;;;;8325890;28;20164;-76
2023/03/25 01:38:03;;;;;;;1.40;0.60;;;7.20;99.90;;;;;;8327153;28;20572;-75
2023/03/25 01:42:04;;;;;;;0.88;0.52;;;7.00;99.90;;;;;;8327198;28;20605;-76
2023/03/25 01:46:07;;;;;;;3.08;0.82;;;6.90;99.90;;;;;;8325443;28;20087;-75
2023/03/25 01:50:09;;;;;;;1.50;0.60;;;6.90;99.90;;;;;;8325359;28;20032;-75
2023/03/25 01:54:11;;;;;;;3.33;0.50;;;7.00;99.90;;;;;;8326182;28;20039;-76
2023/03/25 01:58:16;;;;;;;0.93;0.50;;;7.20;99.90;;;;;;8324790;28;20486;-75
2023/03/25 02:02:18;;;;;;;0.52;0.45;;;7.10;99.90;;;;;;8324444;28;20516;-75
2023/03/25 02:06:27;;;;;;;2.22;0.65;;;7.00;99.90;;;;;;8324286;28;20026;-75
2023/03/25 02:10:29;;;;;;;4.93;0.90;;;6.70;99.90;;;;;;8323617;28;20108;-75
2023/03/25 02:14:32;;;;;;;4.88;0.70;;;6.80;99.90;;;;;;8324118;28;20029;-75
2023/03/25 02:18:52;;;;;;;3.35;0.80;;;6.70;99.90;;;;;;8324010;28;20108;-76
2023/03/25 02:23:00;;;;;;;1.52;0.43;;;6.50;99.90;;;;;;8323984;28;20030;-76
2023/03/25 02:27:32;;;;;;;1.08;0.57;;;6.30;99.90;;;;;;8357739;28;20021;-75
2023/03/25 02:31:45;;;;;;;3.70;0.50;;;6.30;99.90;;;;;;8324894;28;20014;-75
2023/03/25 02:35:51;;;;;;;1.15;0.40;;;6.30;99.90;;;;;;8318699;28;20031;-77
2023/03/25 02:40:18;;;;;;;2.65;0.55;;;6.40;99.90;;;;;;8357171;28;20018;-76
2023/03/25 02:44:31;;;;;;;1.77;0.50;;;6.60;99.90;;;;;;8323855;28;20117;-75
2023/03/25 02:48:39;;;;;;;1.52;0.22;;;6.40;99.90;;;;;;8325430;28;20020;-75
2023/03/25 02:52:45;;;;;;;1.42;0.55;;;6.50;99.90;;;;;;8324215;28;20124;-76
2023/03/25 02:56:49;;;;;;;1.77;0.30;;;6.50;99.90;;;;;;8324300;28;20028;-75
2023/03/25 03:00:52;;;;;;;2.05;0.55;;;6.50;99.90;;;;;;8324409;28;20009;-75
2023/03/25 03:04:56;;;;;;;0.57;0.40;;;6.50;99.90;;;;;;8318816;28;20021;-76
2023/03/25 03:09:37;;;;;;;3.75;0.57;;;6.50;99.90;;;;;;8324471;28;20057;-75
2023/03/25 03:13:52;;;;;;;1.85;0.40;;;6.50;99.90;;;;;;8319127;28;20060;-76
2023/03/25 03:18:32;;;;;;;1.73;0.50;;;6.60;99.90;;;;;;8322896;28;20029;-75
2023/03/25 03:22:52;;;;;;;0.95;0.40;;;6.60;99.90;;;;;;8338567;28;20026;-78
2023/03/25 03:27:03;;;;;;;1.73;0.80;;;6.70;99.90;;;;;;8323818;28;20022;-76
2023/03/25 03:31:10;;;;;;;;;;;6.80;99.90;;;;;;8326378;28;20068;-75
2023/03/25 03:35:25;;;;;;;1.02;0.40;;;7.00;99.90;;;;;;8330924;28;19916;-76
2023/03/25 03:39:31;;;;;;;5.15;0.30;;;7.10;99.90;;;;;;8329647;28;20036;-76
2023/03/25 03:43:47;;;;;;;1.17;0.60;;;7.10;99.90;;;;;;8330937;28;20029;-75
2023/03/25 03:47:52;;;;;;;2.65;0.60;;;7.20;99.90;;;;;;8340640;28;20036;-75
2023/03/25 03:52:02;;;;;;;1.25;0.30;;;7.20;99.90;;;;;;8329250;28;20689;-75
2023/03/25 03:56:08;;;;;;;1.23;0.40;;;7.30;99.90;;;;;;8328943;28;20029;-76
2023/03/25 04:00:13;;;;;;;1.85;0.43;;;7.20;99.90;;;;;;8329181;28;20089;-76
2023/03/25 04:04:25;;;;;;;1.73;0.70;;;7.20;99.90;;;;;;8360703;28;20032;-76
2023/03/25 04:08:32;;;;;;;0.38;0.20;;;6.90;99.90;;;;;;8329032;28;20021;-75
2023/03/25 04:12:37;;;;;;;1.25;0.43;;;6.80;99.90;;;;;;8326908;28;20029;-75
2023/03/25 04:16:38;;;;;;;1.52;0.57;;;6.80;99.90;;;;;;8328499;28;20122;-75
2023/03/25 04:20:43;;;;;;;0.85;0.43;;;6.70;99.90;;;;;;8329035;28;20029;-76
2023/03/25 04:24:44;;;;;;;1.10;0.50;;;6.70;99.90;;;;;;8327572;28;20402;-76
2023/03/25 04:28:44;;;;;;;0.90;0.30;;;6.70;99.90;;;;;;8328567;28;20032;-76
2023/03/25 04:32:46;;;;;;;0.45;0.30;;;6.80;99.90;;;;;;8327589;28;20832;-75
2023/03/25 04:36:48;;;;;;;0.55;0.25;;;6.90;99.90;;;;;;8329290;28;20104;-77
2023/03/25 04:40:49;;;;;;;0.68;0.38;;;6.80;99.90;;;;;;8327068;28;20018;-76
2023/03/25 04:44:53;;;;;;;0.75;0.32;;;6.80;99.90;;;;;;8326919;28;20053;-76
2023/03/25 04:48:55;;;;;;;0.17;0.17;;;6.80;99.90;;;;;;8327295;28;20029;-76
2023/03/25 04:52:59;;;;;;;1.67;0.80;;;6.80;99.90;;;;;;8327268;28;20029;-76
2023/03/25 04:57:00;;;;;;;0.10;0.10;;;6.80;99.90;;;;;;8328629;28;20029;-75
2023/03/25 05:01:04;;;;;;;0.95;0.40;;;6.80;99.90;;;;;;8326435;28;20096;-75
2023/03/25 05:05:06;;;;;;;0.50;0.30;;;6.70;99.90;;;;;;8327722;28;20437;-75
2023/03/25 05:09:10;;;;;;;0.50;0.32;;;6.70;99.90;;;;;;8326098;28;20398;-75
2023/03/25 05:13:11;;;;;;;2.83;0.35;;;6.70;99.90;;;;;;8341386;22;20572;-78
2023/03/25 05:17:12;;;;;;;0.20;0.20;;;6.60;99.90;;;;;;8288566;28;20030;-78
2023/03/25 05:21:12;;;;;;;1.70;0.17;;;6.50;99.90;;;;;;8286456;28;20032;-78
2023/03/25 05:25:13;;;;;;;1.45;0.20;;;6.50;99.90;;;;;;8271831;28;20057;-78
2023/03/25 05:29:14;;;;;;;0.20;0.20;;;6.40;99.90;;;;;;8255325;28;20371;-78
2023/03/25 05:33:16;;;;;;;0.45;0.10;;;6.30;99.90;;;;;;8256035;28;20096;-78
2023/03/25 05:37:17;;;;;;;0.90;0.40;;;6.40;99.90;;;;;;8266684;28;20025;-78
2023/03/25 05:41:17;;;;;;;0.55;0.30;;;6.30;99.90;;;;;;8241928;28;20026;-78
2023/03/25 05:45:18;;;;;;;0.50;0.40;;;6.10;99.90;;;;;;8245701;28;20360;-78
2023/03/25 05:49:20;;;;;;;2.38;0.43;;;6.00;99.90;;;;;;8225576;28;20169;-78
2023/03/25 05:53:21;;;;;;;1.33;0.50;;;5.90;99.90;;;;;;8231717;28;20451;-77
2023/03/25 05:57:22;;;;;;;0.10;0.10;;;5.90;99.90;;;;;;8232561;28;20122;-78
2023/03/25 06:01:22;;;;;;;2.58;0.30;;;5.90;99.90;;;;;;8235268;28;20026;-79
2023/03/25 06:05:23;;;;;;;0.50;0.30;;;5.90;99.90;;;;;;8245454;28;20035;-78
2023/03/25 06:09:23;;;;;;;1.25;0.40;;;5.90;99.90;;;;;;8250627;28;20042;-78
2023/03/25 06:13:24;;;;;;;0.30;0.20;;;6.00;99.90;;;;;;8234671;28;20037;-79
2023/03/25 06:17:26;;;;;;;1.13;0.20;;;6.10;99.90;;;;;;8260235;28;20045;-78
2023/03/25 06:21:27;;;;;;;1.88;0.30;;;6.00;99.90;;;;;;8260535;28;20050;-79
2023/03/25 06:25:30;;;;;;;0.32;0.20;;;5.90;99.90;;;;;;8240576;28;20019;-78
2023/03/25 06:29:30;;;;;;;0.45;0.25;;;5.80;99.90;;;;;;8260091;28;20019;-78
2023/03/25 06:33:31;;;;;;;0.28;0.20;;;6.00;99.90;;;;;;8260293;28;20033;-79
2023/03/25 06:37:32;;;;;;;0.45;0.25;;;6.10;99.90;;;;;;8260107;28;20379;-79
2023/03/25 06:41:34;;;;;;;1.17;0.40;;;6.10;99.90;;;;;;8242272;28;20487;-78
2023/03/25 06:45:35;;;;;;;1.63;0.32;;;6.10;99.90;;;;;;8241851;28;20483;-79
2023/03/25 06:49:35;;;;;;;1.05;0.40;;;6.30;99.90;;;;;;8241864;28;20042;-79
2023/03/25 06:53:36;;;;;;;0.57;0.40;;;6.60;99.90;;;;;;8241948;28;20414;-79
2023/03/25 06:57:37;;;;;;;0.35;0.30;;;6.70;99.90;;;;;;8246599;28;20037;-78
2023/03/25 07:01:37;;;;;;;0.20;0.20;;;6.90;99.90;;;;;;8267695;28;20022;-78
2023/03/25 07:05:40;;;;;;;0.20;0.20;;;7.00;99.90;;;;;;8259399;28;20042;-79
2023/03/25 07:09:41;;;;;;;0.40;0.15;;;7.00;99.90;;;;;;8240919;28;20030;-79
2023/03/25 07:13:41;;;;;;;1.02;0.30;;;7.10;99.90;;;;;;8241071;28;20042;-79
2023/03/25 07:17:43;;;;;;;0.55;0.20;;;7.20;99.90;;;;;;8253269;28;20054;-79
2023/03/25 07:21:44;;;;;;;0.73;0.17;;;7.50;99.90;;;;;;8259009;28;20018;-78
2023/03/25 07:25:44;;;;;;;0.28;0.15;;;7.50;99.90;;;;;;8247143;28;20379;-79
2023/03/25 07:29:45;;;;;;;0.20;0.10;;;7.60;99.90;;;;;;8244788;28;20508;-79
2023/03/25 07:33:45;;;;;;;0.35;0.22;;;7.70;99.90;;;;;;8232027;28;20502;-79
2023/03/25 07:37:46;;;;;;;1.42;0.22;;;7.80;99.90;;;;;;8236208;28;20073;-79
2023/03/25 07:41:46;;;;;;;0.85;0.20;;;7.80;99.90;;;;;;8243954;28;20022;-79
2023/03/25 07:45:47;;;;;;;0.25;0.25;;;7.90;99.90;;;;;;8236675;28;20502;-79
2023/03/25 07:49:48;;;;;;;0.10;0.10;;;7.70;99.90;;;;;;8258122;28;20124;-79
2023/03/25 07:53:49;;;;;;;0.63;0.30;;;7.70;99.90;;;;;;8233370;28;20034;-79
2023/03/25 07:57:50;;;;;;;0.10;0.10;;;7.90;99.90;;;;;;8240791;28;20437;-79
2023/03/25 08:01:50;;;;;;;0.45;0.40;;;8.30;99.90;;;;;;8256504;28;20042;-79
2023/03/25 08:05:51;;;;;;;0.20;0.20;;;8.30;99.90;;;;;;8240595;28;20026;-79
2023/03/25 08:09:51;;;;;;;0.20;0.20;;;8.20;99.90;;;;;;8260098;28;20031;-78
2023/03/25 08:13:52;;;;;;;0.35;0.22;;;8.10;99.90;;;;;;8256669;28;20038;-79
2023/03/25 08:17:53;;;;;;;1.15;0.38;;;7.80;99.90;;;;;;8252966;28;20503;-79
2023/03/25 08:21:53;;;;;;;0.20;0.20;;;7.80;99.90;;;;;;8246825;28;20018;-79
2023/03/25 08:25:54;;;;;;;2.35;0.40;;;8.00;99.90;;;;;;8246639;28;20034;-79
2023/03/25 08:29:56;;;;;;;2.33;0.30;;;8.50;99.90;;;;;;8258779;28;20029;-79
2023/03/25 08:33:57;;;;;;;1.08;0.40;;;8.90;99.90;;;;;;8249110;28;20549;-79
2023/03/25 08:38:00;;;;;;;2.60;0.43;;;9.20;99.90;;;;;;8246628;28;20371;-79
2023/03/25 08:42:00;;;;;;;2.45;0.30;;;9.50;99.90;;;;;;8263737;28;20049;-79
2023/03/25 08:46:01;;;;;;;0.90;0.25;;;9.50;99.90;;;;;;8250012;28;20178;-79
2023/03/25 08:50:02;;;;;;;0.60;0.25;;;9.50;99.90;;;;;;8269943;28;20280;-79
2023/03/25 08:54:02;;;;;;;1.65;0.30;;;9.20;99.90;;;;;;8272489;28;20041;-79
2023/03/25 08:58:05;;;;;;;3.17;0.45;;;9.50;99.90;;;;;;8256526;28;20029;-79
2023/03/25 09:02:05;;;;;;;0.43;0.25;;;9.90;99.90;;;;;;8249672;28;20478;-79
2023/03/25 09:06:07;;;;;;;1.55;0.25;;;10.10;99.90;;;;;;8275093;28;20038;-79
2023/03/25 09:10:08;;;;;;;0.32;0.30;;;10.70;99.90;;;;;;8257341;28;20486;-79
2023/03/25 09:14:09;;;;;;;0.77;0.40;;;10.80;99.90;;;;;;8271360;28;20035;-80
2023/03/25 09:18:10;;;;;;;1.60;0.40;;;10.30;99.90;;;;;;8261815;28;20095;-79
2023/03/25 09:22:10;;;;;;;1.63;0.63;;;10.10;99.90;;;;;;8243869;28;20030;-79
2023/03/25 09:26:11;;;;;;;0.70;0.35;;;9.80;99.90;;;;;;8244353;28;20121;-79
2023/03/25 09:30:12;;;;;;;1.92;0.50;;;9.50;99.90;;;;;;8250491;28;20029;-80
2023/03/25 09:34:12;;;;;;;1.23;0.32;;;9.50;99.90;;;;;;8261580;28;20110;-79
2023/03/25 09:38:13;;;;;;;0.43;0.30;;;9.50;99.90;;;;;;8244439;28;20011;-79
2023/03/25 09:42:49;;;;;;;0.85;0.40;;;9.70;99.90;;;;;;8257069;28;20026;-80
2023/03/25 09:46:50;;;;;;;0.90;0.38;;;10.10;99.90;;;;;;8266825;28;20026;-81
2023/03/25 09:50:50;;;;;;;0.25;0.22;;;10.40;99.90;;;;;;8272382;28;20018;-79
2023/03/25 09:54:56;;;;;;;0.75;0.30;;;10.40;99.90;;;;;;8239800;28;20042;-80
2023/03/25 09:59:01;;;;;;;1.63;0.40;;;10.30;99.90;;;;;;8260723;28;20023;-80
2023/03/25 10:03:33;;;;;;;0.30;0.30;;;10.90;99.90;;;;;;8238788;28;20092;-81
2023/03/25 10:07:52;;;;;;;0.80;0.20;;;11.30;99.90;;;;;;8239984;28;20033;-80
2023/03/25 10:12:14;;;;;;;0.20;0.20;;;11.80;99.90;;;;;;8242323;28;20057;-80
2023/03/25 10:16:28;;;;;;;1.65;0.10;;;12.30;99.90;;;;;;8260403;28;20048;-80
2023/03/25 10:20:37;;;;;;;1.40;0.20;;;12.30;99.90;;;;;;8258128;28;20017;-80
2023/03/25 10:24:59;;;;;;;0.40;0.20;;;11.70;99.90;;;;;;8235518;28;20398;-80
2023/03/25 10:29:06;;;;;;;0.10;0.10;;;11.60;99.90;;;;;;8235489;28;20030;-80
2023/03/25 10:33:33;;;;;;;1.63;0.20;;;12.00;99.90;;;;;;8245467;28;20034;-81
2023/03/25 10:37:40;;;;;;;0.10;0.10;;;12.00;99.90;;;;;;8249944;28;20054;-80
2023/03/25 10:41:42;;;;;;;0.10;0.10;;;11.70;99.90;;;;;;8245885;28;20033;-80
2023/03/25 10:45:44;;;;;;;0.17;0.17;;;11.50;99.90;;;;;;8253095;28;20035;-80
2023/03/25 10:49:47;;;;;;;0.50;0.20;;;11.10;99.90;;;;;;8234243;28;20372;-80
2023/03/25 10:53:51;;;;;;;0.13;0.13;;;11.30;99.90;;;;;;8229542;28;20508;-80
2023/03/25 10:57:54;;;;;;;0.20;0.20;;;12.20;99.90;;;;;;8246056;28;20112;-80
2023/03/25 11:01:56;;;;;;;0.30;0.28;;;12.80;99.90;;;;;;8261764;28;20452;-80
2023/03/25 11:05:57;;;;;;;0.50;0.40;;;12.60;99.90;;;;;;8254266;28;20053;-80
2023/03/25 11:10:28;;;;;;;0.20;0.20;;;12.80;99.90;;;;;;8240513;28;20378;-80
2023/03/25 11:14:29;;;;;;;0.15;0.15;;;12.50;99.90;;;;;;8243583;28;20522;-80
2023/03/25 11:18:36;;;;;;;0.38;0.20;;;12.10;99.90;;;;;;8230739;28;20487;-80
2023/03/25 11:22:37;;;;;;;0.75;0.28;;;12.10;99.90;;;;;;8246527;28;20025;-80
2023/03/25 11:26:40;;;;;;;0.10;0.10;;;12.00;99.90;;;;;;8246394;28;20026;-80
2023/03/25 11:31:18;;;;;;;0.73;0.10;;;11.60;99.90;;;;;;8244528;28;20038;-80
2023/03/25 11:35:27;;;;;;;0.10;0.10;;;11.50;99.90;;;;;;8254587;28;20022;-80
2023/03/25 11:39:38;;;;;;;0.13;0.13;;;12.00;99.90;;;;;;8236663;28;20679;-80
2023/03/25 11:43:39;;;;;;;0.25;0.10;;;12.20;99.90;;;;;;8242445;28;20027;-78
2023/03/25 11:47:40;;;;;;;0.85;0.20;;;12.00;99.90;;;;;;8255937;28;20035;-80
2023/03/25 11:51:41;;;;;;;0.10;0.10;;;12.30;99.90;;;;;;8238239;28;20018;-80
2023/03/25 11:55:49;;;;;;;0.15;0.10;;;12.40;99.90;;;;;;8235808;28;20114;-80
2023/03/25 12:00:00;;;;;;;0.10;0.10;;;14.20;99.90;;;;;;8259429;28;20041;-80
2023/03/25 12:04:19;;;;;;;0.10;0.10;;;14.10;99.90;;;;;;8244264;28;20520;-78
2023/03/25 12:08:20;;;;;;;0.20;0.20;;;14.60;99.90;;;;;;8251594;28;20105;-78
2023/03/25 12:12:52;;;;;;;0.80;0.22;;;14.20;99.90;;;;;;8246618;28;20037;-78
2023/03/25 12:17:09;;;;;;;2.90;0.22;;;15.20;99.90;;;;;;8253552;28;20486;-78
2023/03/25 12:21:35;;;;;;;0.10;0.10;;;15.00;99.90;;;;;;8261738;28;20029;-78
2023/03/25 12:25:52;;;;;;;0.10;0.10;;;16.10;99.90;;;;;;8257079;28;20030;-80
2023/03/25 12:30:12;;;;;;;0.20;0.10;;;16.30;99.90;;;;;;8246540;28;20022;-80
2023/03/25 12:34:45;;;;;;;0.13;0.10;;;16.80;99.90;;;;;;8245119;28;20026;-78
2023/03/25 12:39:08;;;;;;;0.20;0.10;;;16.10;99.90;;;;;;8261876;28;20018;-79
2023/03/25 12:43:10;;;;;;;0.20;0.20;;;15.40;99.90;;;;;;8264048;28;20023;-80
2023/03/25 12:47:38;;;;;;;0.10;0.10;;;15.30;99.90;;;;;;8246606;28;20025;-80
2023/03/25 12:51:44;;;;;;;1.88;0.30;;;14.20;99.90;;;;;;8245563;28;20069;-78
2023/03/25 12:55:54;;;;;;;0.10;0.10;;;14.20;99.90;;;;;;8262123;28;20841;-80
2023/03/25 13:00:14;;;;;;;0.90;0.30;;;14.00;99.90;;;;;;8255731;28;20018;-79
2023/03/25 13:04:37;;;;;;;0.63;0.30;;;13.30;99.90;;;;;;8241788;28;20077;-82
2023/03/25 13:09:00;;;;;;;0.20;0.20;;;13.60;99.90;;;;;;8255326;28;20084;-80
2023/03/25 13:13:08;;;;;;;0.38;0.20;;;13.20;99.90;;;;;;8252546;28;20117;-79
2023/03/25 13:17:29;;;;;;;0.77;0.20;;;13.70;99.90;;;;;;8244081;28;20101;-79
2023/03/25 13:21:52;;;;;;;0.10;0.10;;;13.50;99.90;;;;;;8252446;28;20026;-80
2023/03/25 13:26:20;;;;;;;0.50;0.25;;;14.70;99.90;;;;;;8264759;28;20102;-80
2023/03/25 13:30:33;;;;;;;0.30;0.20;;;16.40;99.90;;;;;;8245764;28;20262;-80
2023/03/25 13:34:43;;;;;;;0.95;0.50;;;15.70;99.90;;;;;;8233262;28;20022;-81
2023/03/25 13:38:57;;;;;;;0.35;0.20;;;15.90;99.90;;;;;;8237797;28;20109;-81
2023/03/25 13:43:19;;;;;;;0.35;0.35;;;16.60;99.90;;;;;;8248860;28;20118;-79
2023/03/25 13:47:32;;;;;;;0.45;0.30;;;17.50;99.90;;;;;;8234149;28;20535;-81
2023/03/25 13:51:33;;;;;;;0.40;0.20;;;17.90;99.90;;;;;;8252704;28;20113;-81
2023/03/25 13:55:39;;;;;;;2.30;0.40;;;16.90;99.90;;;;;;8245726;28;20030;-80
2023/03/25 14:00:01;;;;;;;0.85;0.50;;;18.40;99.90;;;;;;8262497;28;20216;-80
2023/03/25 14:04:24;;;;;;;1.17;0.50;;;19.00;99.70;;;;;;8251320;28;20109;-80
2023/03/25 14:08:51;;;;;;;0.82;0.20;;;18.50;97.70;;;;;;8262929;28;20026;-78
2023/03/25 14:13:05;;;;;;;3.28;0.40;;;17.10;99.90;;;;;;8255448;28;20034;-77
2023/03/25 14:17:06;;;;;;;1.38;0.43;;;17.90;99.90;;;;;;8262117;28;20034;-77
2023/03/25 14:21:28;;;;;;;0.40;0.40;;;19.00;99.30;;;;;;8262841;28;20018;-78
2023/03/25 14:25:33;;;;;;;1.23;0.43;;;18.90;97.20;;;;;;8253222;28;20073;-76
2023/03/25 14:30:17;;;;;;;0.40;0.30;;;17.50;99.90;;;;;;8258902;28;20026;-77
2023/03/25 14:34:25;;;;;;;0.68;0.40;;;17.50;99.90;;;;;;8206165;28;20031;-77
2023/03/25 14:38:50;;;;;;;0.95;0.40;;;18.10;99.40;;;;;;8261750;28;20026;-77
2023/03/25 14:42:58;;;;;;;0.25;0.15;;;18.40;99.60;;;;;;8247637;28;20691;-78
2023/03/25 14:47:03;;;;;;;0.88;0.32;;;18.70;97.10;;;;;;8244355;28;20030;-78
2023/03/25 14:51:27;;;;;;;0.20;0.20;;;18.20;99.50;;;;;;8250635;28;20037;-78
2023/03/25 14:55:34;;;;;;;0.43;0.32;;;17.80;99.10;;;;;;8235872;28;20085;-77
2023/03/25 14:59:41;;;;;;;0.30;0.20;;;18.00;97.70;;;;;;8251481;28;20053;-78
2023/03/25 15:03:44;;;;;;;2.20;0.35;;;17.00;99.60;;;;;;8254070;28;20033;-77
2023/03/25 15:07:50;;;;;;;0.68;0.30;;;16.20;99.90;;;;;;8244422;28;20085;-78
2023/03/25 15:11:56;;;;;;;0.70;0.28;;;16.10;99.90;;;;;;8243865;28;20037;-77
2023/03/25 15:16:02;;;;;;;0.68;0.50;;;14.70;99.90;;;;;;8261350;28;20030;-77
2023/03/25 15:20:09;;;;;;;0.43;0.40;;;13.40;99.90;;;;;;8261091;28;20511;-77
2023/03/25 15:24:12;;;;;;;0.45;0.30;;;14.70;99.90;;;;;;8252615;28;20045;-78
2023/03/25 15:28:38;;;;;;;1.27;0.50;;;14.20;99.90;;;;;;8243457;28;20022;-78
2023/03/25 15:33:03;;;;;;;1.80;0.45;;;13.40;99.90;;;;;;8259070;28;20033;-77
2023/03/25 15:37:42;;;;;;;0.93;0.30;;;12.50;99.90;;;;;;8244411;28;20046;-77
2023/03/25 15:42:20;;;;;;;1.27;0.40;;;11.60;99.90;;;;;;8242768;28;20028;-76
2023/03/25 15:47:03;;;;;;;1.95;0.50;;;10.80;99.90;;;;;;8259889;28;20030;-77
2023/03/25 15:51:31;;;;;;;1.40;0.65;;;10.80;99.90;;;;;;8252349;28;20088;-76
2023/03/25 15:55:48;;;;;;;0.88;0.50;;;10.80;99.90;;;;;;8258044;28;20031;-78
2023/03/25 16:00:00;;;;;;;1.17;0.30;;;11.20;99.90;;;;;;8247885;28;20058;-78
2023/03/25 16:04:09;;;;;;;0.70;0.50;;;10.90;99.90;;;;;;8267325;28;20026;-77
2023/03/25 16:08:16;;;;;;;1.77;1.05;;;10.80;99.90;;;;;;8265810;28;20137;-78
2023/03/25 16:12:24;;;;;;;0.95;0.40;;;12.50;99.90;;;;;;8276275;28;20037;-78
2023/03/25 16:16:25;;;;;;;0.73;0.32;;;13.10;99.90;;;;;;8267893;28;20671;-78
2023/03/25 16:20:27;;;;;;;1.70;0.40;;;13.50;99.90;;;;;;8268390;28;20021;-80
2023/03/25 16:24:33;;;;;;;1.80;0.50;;;14.10;99.90;;;;;;8263169;28;20072;-81
2023/03/25 16:28:39;;;;;;;2.55;0.68;;;13.80;99.90;;;;;;8251145;28;20056;-80
2023/03/25 16:32:40;;;;;;;1.30;0.40;;;12.50;99.90;;;;;;8255537;28;20419;-80
2023/03/25 16:36:43;;;;;;;0.28;0.28;;;11.40;99.90;;;;;;8263106;28;20037;-80
2023/03/25 16:40:45;;;;;;;1.88;0.55;;;10.90;99.90;;;;;;8250034;28;20026;-80
2023/03/25 16:44:46;;;;;;;2.53;0.65;;;10.50;99.90;;;;;;8269745;28;20033;-79
2023/03/25 16:48:51;;;;;;;0.73;0.50;;;10.30;99.90;;;;;;8274866;28;20050;-80
2023/03/25 16:52:51;;;;;;;0.40;0.30;;;10.10;99.90;;;;;;8249534;28;20026;-80
2023/03/25 16:56:52;;;;;;;0.85;0.40;;;9.90;99.90;;;;;;8253006;28;20032;-81
2023/03/25 17:00:54;;;;;;;1.98;0.40;;;9.80;99.90;;;;;;8254303;28;20022;-80
2023/03/25 17:05:19;;;;;;;0.63;0.30;;;9.70;99.90;;;;;;8269167;28;20041;-80
2023/03/25 17:09:32;;;;;;;1.08;0.28;;;9.40;99.90;;;;;;8266206;28;20050;-80
2023/03/25 17:13:43;;;;;;;4.65;0.52;;;9.30;99.90;;;;;;8242376;28;20038;-82
2023/03/25 17:17:52;;;;;;;2.08;0.40;;;9.20;99.90;;;;;;8261083;28;20034;-78
2023/03/25 17:22:22;;;;;;;3.28;0.47;;;9.10;99.90;;;;;;8243688;28;20022;-79
2023/03/25 17:26:25;;;;;;;2.13;0.27;;;8.90;99.90;;;;;;8246817;28;20049;-79
2023/03/25 17:30:43;;;;;;;1.75;0.60;;;8.90;99.90;;;;;;8246712;28;20117;-79
2023/03/25 17:34:54;;;;;;;1.10;0.40;;;8.90;99.90;;;;;;8289121;22;20111;-78
2023/03/25 17:38:56;;;;;;;1.27;0.60;;;8.80;99.90;;;;;;8285157;28;20081;-79
2023/03/25 17:42:57;;;;;;;1.25;0.43;;;8.70;99.90;;;;;;8276353;28;20074;-79
2023/03/25 17:46:57;;;;;;;0.40;0.40;;;8.60;99.90;;;;;;8267512;28;20034;-79
2023/03/25 17:50:59;;;;;;;0.93;0.30;;;8.50;99.90;;;;;;8278243;28;20030;-79
2023/03/25 17:54:59;;;;;;;0.30;0.30;;;8.30;99.90;;;;;;8247055;28;20031;-78
2023/03/25 17:59:03;;;;;;;1.38;0.73;;;8.10;99.90;;;;;;8246976;28;20490;-78
2023/03/25 18:03:16;;;;;;;0.63;0.25;;;8.10;99.90;;;;;;8259798;28;20069;-79
2023/03/25 18:07:20;;;;;;;0.45;0.30;;;8.00;99.90;;;;;;8247233;28;20541;-78
2023/03/25 18:11:20;;;;;;;0.40;0.30;;;8.00;99.90;;;;;;8276106;28;20708;-79
2023/03/25 18:15:21;;;;;;;1.90;0.20;;;7.90;99.90;;;;;;8279565;28;20018;-79
2023/03/25 18:19:29;;;;;;;0.60;0.40;;;7.80;99.90;;;;;;8238117;28;20019;-78
2023/03/25 18:23:30;;;;;;;1.65;0.47;;;7.70;99.90;;;;;;8246766;28;20019;-79
2023/03/25 18:27:32;;;;;;;1.17;0.30;;;7.60;99.90;;;;;;8243900;28;20038;-77
2023/03/25 18:31:33;;;;;;;0.43;0.30;;;7.60;99.90;;;;;;8242986;28;20404;-77
2023/03/25 18:35:33;;;;;;;1.48;0.70;;;7.50;99.90;;;;;;8245566;28;20035;-77
2023/03/25 18:39:34;;;;;;;0.45;0.40;;;7.40;99.90;;;;;;8239152;28;20471;-77
2023/03/25 18:43:34;;;;;;;0.52;0.45;;;7.40;99.90;;;;;;8245476;28;20050;-77
2023/03/25 18:47:35;;;;;;;0.43;0.30;;;7.20;99.90;;;;;;8262468;28;20022;-78
2023/03/25 18:51:36;;;;;;;0.60;0.40;;;7.20;99.90;;;;;;8258741;28;20042;-78
2023/03/25 18:55:37;;;;;;;0.65;0.20;;;7.10;99.90;;;;;;8244525;28;20046;-77
2023/03/25 18:59:37;;;;;;;0.70;0.43;;;7.10;99.90;;;;;;8262061;28;20022;-77
2023/03/25 19:03:38;;;;;;;1.90;0.40;;;7.10;99.90;;;;;;8272439;28;20654;-77
2023/03/25 19:07:39;;;;;;;0.43;0.32;;;7.00;99.90;;;;;;8262686;28;20026;-77
2023/03/25 19:11:40;;;;;;;0.38;0.30;;;7.00;99.90;;;;;;8239790;28;20023;-78
2023/03/25 19:15:41;;;;;;;1.25;0.50;;;6.90;99.90;;;;;;8244043;28;20062;-78
2023/03/25 19:19:42;;;;;;;0.52;0.40;;;6.90;99.90;;;;;;8243861;28;20634;-78
2023/03/25 19:23:43;;;;;;;1.05;0.47;;;6.70;99.90;;;;;;8252214;28;20058;-78
2023/03/25 19:27:45;;;;;;;1.27;0.45;;;6.70;99.90;;;;;;8243944;28;20518;-78
2023/03/25 19:31:46;;;;;;;4.10;0.60;;;6.50;99.90;;;;;;8243466;28;20422;-77
2023/03/25 19:35:53;;;;;;;2.25;0.68;;;6.40;99.90;;;;;;8263571;28;20031;-77
2023/03/25 19:39:54;;;;;;;0.93;0.47;;;6.40;99.90;;;;;;8244082;28;20034;-78
2023/03/25 19:43:54;;;;;;;2.05;0.68;;;6.40;99.90;;;;;;8244991;28;20080;-77
2023/03/25 19:47:55;;;;;;;3.17;0.63;;;6.30;99.90;;;;;;8257176;28;20026;-77
2023/03/25 19:51:55;;;;;;;1.80;0.50;;;6.40;99.90;;;;;;8262085;28;20018;-78
2023/03/25 19:56:01;;;;;;;3.33;0.93;;;6.40;99.90;;;;;;8262415;28;20022;-78
2023/03/25 20:00:11;;;;;;;1.33;0.52;;;6.30;99.90;;;;;;8260919;28;20072;-78
2023/03/25 20:04:12;;;;;;;1.27;0.75;;;6.30;99.90;;;;;;8260499;28;20095;-78
2023/03/25 20:08:12;;;;;;;1.58;0.70;;;6.20;99.90;;;;;;8243098;28;20050;-77
2023/03/25 20:12:13;;;;;;;1.38;0.70;;;6.20;99.90;;;;;;8261386;28;20085;-77
2023/03/25 20:16:14;;;;;;;1.52;0.52;;;6.20;99.90;;;;;;8266807;28;20022;-77
2023/03/25 20:20:15;;;;;;;2.03;0.75;;;6.30;99.90;;;;;;8249277;28;20045;-77
2023/03/25 20:24:16;;;;;;;0.68;0.47;;;6.20;99.90;;;;;;8246206;28;20113;-77
2023/03/25 20:28:17;;;;;;;2.90;1.27;;;6.20;99.90;;;;;;8266245;28;20025;-76
2023/03/25 20:32:17;;;;;;;1.02;0.52;;;6.10;99.90;;;;;;8262737;28;20045;-77
2023/03/25 20:36:20;;;;;;;2.97;1.00;;;6.10;99.90;;;;;;8265979;28;20033;-77
2023/03/25 20:40:20;;;;;;;0.50;0.35;;;6.10;99.90;;;;;;8248276;28;20579;-78
2023/03/25 20:44:21;;;;;;;1.02;0.60;;;6.10;99.90;;;;;;8248642;28;20033;-77
2023/03/25 20:48:24;;;;;;;0.73;0.50;;;6.20;99.90;;;;;;8248480;28;20026;-77
2023/03/25 20:52:24;;;;;;;0.85;0.45;;;6.20;99.90;;;;;;8248589;28;20171;-76
2023/03/25 20:56:25;;;;;;;1.63;0.50;;;6.30;99.90;;;;;;8262119;28;20033;-77
2023/03/25 21:00:25;;;;;;;1.10;0.52;;;6.30;99.90;;;;;;8248044;28;20018;-77
2023/03/25 21:04:26;;;;;;;0.80;0.52;;;6.40;99.90;;;;;;8246952;28;20169;-77
2023/03/25 21:08:32;;;;;;;1.05;0.68;;;6.30;99.90;;;;;;8265139;28;20050;-78
2023/03/25 21:12:34;;;;;;;1.27;0.60;;;6.40;99.90;;;;;;8263803;28;20411;-77
2023/03/25 21:16:34;;;;;;;0.77;0.52;;;6.40;99.90;;;;;;8245710;28;20084;-78
2023/03/25 21:20:36;;;;;;;0.85;0.60;;;6.30;99.90;;;;;;8262225;28;20561;-77
2023/03/25 21:24:37;;;;;;;1.65;0.70;;;6.40;99.90;;;;;;8264160;28;20621;-78
2023/03/25 21:28:37;;;;;;;0.98;0.52;;;6.40;99.90;;;;;;8244987;28;20030;-77
2023/03/25 21:32:38;;;;;;;4.60;0.80;;;6.40;99.90;;;;;;8246430;28;20031;-77